Terminal Aerodrome Forecast
Issued by NWS Detroit/Pontiac, MI

Home | Current Version | Previous Version | Text Only | Print | Product List | Glossary On
Versions: 1 2 3 4 5 6 7 8 9 10 11 12 13 14 15 16 17 18 19 20 21 22 23 24 25 26 27 28 29 30
000
FTUS43 KDTX 300900 AAA
TAFDTW
TAF AMD
KDTW 300909Z 3009/3112 27005KT P6SM SCT120 BKN200
      TEMPO 3010/3012 5SM BR SCT200
     FM301700 27010KT P6SM BKN050 PROB30 3020/3024 5SM -SHRA BKN035
     FM310000 29006KT P6SM BKN070=

USA.gov is the U.S. government's official web portal to all federal, state and local government web resources and services.